createdAt,value
2018-08-21T00:00:31.741Z,19.81
2018-08-21T00:01:31.768Z,19.77
2018-08-21T00:02:31.793Z,19.84
2018-08-21T00:03:31.819Z,19.90
2018-08-21T00:04:31.833Z,19.81
2018-08-21T00:05:31.858Z,19.85
2018-08-21T00:06:31.884Z,19.82
2018-08-21T00:07:31.922Z,19.90
2018-08-21T00:08:31.924Z,19.90
2018-08-21T00:09:31.949Z,19.81
2018-08-21T00:10:31.975Z,19.89
2018-08-21T00:11:32.001Z,19.82
2018-08-21T00:12:32.017Z,19.85
2018-08-21T00:13:32.040Z,19.87
2018-08-21T00:14:32.080Z,19.85
2018-08-21T00:15:32.093Z,19.85
2018-08-21T00:16:32.117Z,19.84
2018-08-21T00:17:32.132Z,19.89
2018-08-21T00:18:32.158Z,19.84
2018-08-21T00:19:32.183Z,19.94
2018-08-21T00:20:32.210Z,19.89
2018-08-21T00:21:32.223Z,19.90
2018-08-21T00:22:32.249Z,19.90
2018-08-21T00:23:32.274Z,19.93
2018-08-21T00:24:32.300Z,19.93
2018-08-21T00:25:32.315Z,19.93
2018-08-21T00:26:32.340Z,19.93
2018-08-21T00:27:32.371Z,19.94
2018-08-21T00:28:32.400Z,19.96
2018-08-21T00:29:32.405Z,19.96
2018-08-21T00:30:32.431Z,19.90
2018-08-21T00:31:32.457Z,19.96
2018-08-21T00:32:32.482Z,19.84
2018-08-21T00:33:32.497Z,19.93
2018-08-21T00:34:32.523Z,19.93
2018-08-21T00:35:32.548Z,19.85
2018-08-21T00:36:32.575Z,19.89
2018-08-21T00:37:32.608Z,19.92
2018-08-21T00:38:32.615Z,19.90
2018-08-21T00:39:32.642Z,19.92
2018-08-21T00:40:32.665Z,19.90
2018-08-21T00:41:32.692Z,19.97
2018-08-21T00:42:32.706Z,19.87
2018-08-21T00:43:32.735Z,19.89
2018-08-21T00:44:32.757Z,19.90
2018-08-21T00:45:32.784Z,19.92
2018-08-21T00:46:32.796Z,19.92
2018-08-21T00:47:32.824Z,19.92
2018-08-21T00:48:32.849Z,19.93
2018-08-21T00:49:32.874Z,19.89
2018-08-21T00:50:32.889Z,19.87
2018-08-21T00:51:32.914Z,19.92
2018-08-21T00:52:32.940Z,19.96
2018-08-21T00:53:32.965Z,19.89
2018-08-21T00:54:32.980Z,19.93
2018-08-21T00:55:33.008Z,19.87
2018-08-21T00:56:33.030Z,19.97
2018-08-21T00:57:33.059Z,19.87
2018-08-21T00:58:33.081Z,19.87
2018-08-21T00:59:33.096Z,19.89
2018-08-21T01:00:33.122Z,19.90
2018-08-21T01:01:33.148Z,19.84
2018-08-21T01:02:33.173Z,19.90
2018-08-21T01:03:33.186Z,19.84
2018-08-21T01:04:33.221Z,19.89
2018-08-21T01:05:33.249Z,19.90
2018-08-21T01:06:33.279Z,19.84
2018-08-21T01:07:33.277Z,19.82
2018-08-21T01:08:33.304Z,19.84
2018-08-21T01:09:33.330Z,19.89
2018-08-21T01:10:33.355Z,19.78
2018-08-21T01:11:33.369Z,19.77
2018-08-21T01:12:33.395Z,19.79
2018-08-21T01:13:33.433Z,19.77
2018-08-21T01:14:33.447Z,19.77
2018-08-21T01:15:33.462Z,19.78
2018-08-21T01:16:33.486Z,19.82
2018-08-21T01:17:33.516Z,19.81
2018-08-21T01:18:33.538Z,19.77
2018-08-21T01:19:33.551Z,19.81
2018-08-21T01:20:33.578Z,19.79
2018-08-21T01:21:33.604Z,19.78
2018-08-21T01:22:33.629Z,19.77
2018-08-21T01:23:33.643Z,19.71
2018-08-21T01:24:33.669Z,19.78
2018-08-21T01:25:33.695Z,19.79
2018-08-21T01:26:33.721Z,19.74
2018-08-21T01:27:33.733Z,19.75
2018-08-21T01:28:33.762Z,19.71
2018-08-21T01:29:33.788Z,19.70
2018-08-21T01:30:33.811Z,19.74
2018-08-21T01:31:33.826Z,19.72
2018-08-21T01:32:33.853Z,19.67
2018-08-21T01:33:33.879Z,19.66
2018-08-21T01:34:33.904Z,19.62
2018-08-21T01:35:33.916Z,19.66
2018-08-21T01:36:33.955Z,19.78
2018-08-21T01:37:33.968Z,19.74
2018-08-21T01:38:33.994Z,19.77
2018-08-21T01:39:34.009Z,19.74
2018-08-21T01:40:34.034Z,19.67
2018-08-21T01:41:34.061Z,19.72
2018-08-21T01:42:34.076Z,19.66
2018-08-21T01:43:34.101Z,19.77
2018-08-21T01:44:34.127Z,19.66
2018-08-21T01:45:34.152Z,19.64
2018-08-21T01:46:34.178Z,19.75
2018-08-21T01:47:34.191Z,19.64
2018-08-21T01:48:34.217Z,19.74
2018-08-21T01:49:34.245Z,19.71
2018-08-21T01:50:34.258Z,19.63
2018-08-21T01:51:34.285Z,19.63
2018-08-21T01:52:34.308Z,19.62
2018-08-21T01:53:34.333Z,19.62
2018-08-21T01:54:34.347Z,19.59
2018-08-21T01:55:34.373Z,19.56
2018-08-21T01:56:34.402Z,19.62
2018-08-21T01:57:34.428Z,19.55
2018-08-21T01:58:34.439Z,19.57
2018-08-21T01:59:34.464Z,19.57
2018-08-21T02:00:34.490Z,19.47
2018-08-21T02:01:34.516Z,19.52
2018-08-21T02:02:34.529Z,19.49
2018-08-21T02:03:34.557Z,19.44
2018-08-21T02:04:34.581Z,19.52
2018-08-21T02:05:34.610Z,19.45
2018-08-21T02:06:34.625Z,19.41
2018-08-21T02:07:34.646Z,19.47
2018-08-21T02:08:34.672Z,19.42
2018-08-21T02:09:34.697Z,19.42
2018-08-21T02:10:34.712Z,19.41
2018-08-21T02:11:34.739Z,19.35
2018-08-21T02:12:34.766Z,19.42
2018-08-21T02:13:34.780Z,19.44
2018-08-21T02:14:34.803Z,19.35
2018-08-21T02:15:34.830Z,19.39
2018-08-21T02:16:34.855Z,19.39
2018-08-21T02:17:34.870Z,19.39
2018-08-21T02:18:34.894Z,19.39
2018-08-21T02:19:34.925Z,19.41
2018-08-21T02:20:34.947Z,19.39
2018-08-21T02:21:34.960Z,19.37
2018-08-21T02:22:34.985Z,19.41
2018-08-21T02:23:35.011Z,19.38
2018-08-21T02:24:35.025Z,19.41
2018-08-21T02:25:35.051Z,19.27
2018-08-21T02:26:35.078Z,19.22
2018-08-21T02:27:35.104Z,19.30
2018-08-21T02:28:35.119Z,19.27
2018-08-21T02:29:35.143Z,19.30
2018-08-21T02:30:35.167Z,19.27
2018-08-21T02:31:35.200Z,19.20
2018-08-21T02:32:35.208Z,19.17
2018-08-21T02:33:35.234Z,19.17
2018-08-21T02:34:35.259Z,19.20
2018-08-21T02:35:35.273Z,19.23
2018-08-21T02:36:35.298Z,19.22
2018-08-21T02:37:35.324Z,19.22
2018-08-21T02:38:35.403Z,19.20
2018-08-21T02:39:35.365Z,19.09
2018-08-21T02:40:35.398Z,19.20
2018-08-21T02:41:35.416Z,19.19
2018-08-21T02:42:35.429Z,19.07
2018-08-21T02:43:35.455Z,19.09
2018-08-21T02:44:35.485Z,19.07
2018-08-21T02:45:35.507Z,19.01
2018-08-21T02:46:35.521Z,18.98
2018-08-21T02:47:35.548Z,18.96
2018-08-21T02:48:35.573Z,19.09
2018-08-21T02:49:35.632Z,18.98
2018-08-21T02:50:35.613Z,18.98
2018-08-21T02:51:35.637Z,18.92
2018-08-21T02:52:35.653Z,19.00
2018-08-21T02:53:35.679Z,18.97
2018-08-21T02:54:35.703Z,18.91
2018-08-21T02:55:35.730Z,18.96
2018-08-21T02:56:35.743Z,18.91
2018-08-21T02:57:35.769Z,18.89
2018-08-21T02:58:35.794Z,18.92
2018-08-21T02:59:35.810Z,18.96
2018-08-21T03:00:35.835Z,18.81
2018-08-21T03:01:35.861Z,18.83
2018-08-21T03:02:35.887Z,18.79
2018-08-21T03:03:35.899Z,18.85
2018-08-21T03:04:35.925Z,18.88
2018-08-21T03:05:35.950Z,18.79
2018-08-21T03:06:35.964Z,18.83
2018-08-21T03:07:35.990Z,18.86
2018-08-21T03:08:36.016Z,18.79
2018-08-21T03:09:36.042Z,18.73
2018-08-21T03:10:36.056Z,18.81
2018-08-21T03:11:36.082Z,18.81
2018-08-21T03:12:36.107Z,18.74
2018-08-21T03:13:36.122Z,18.85
2018-08-21T03:14:36.146Z,18.79
2018-08-21T03:15:36.174Z,18.70
2018-08-21T03:16:36.186Z,18.78
2018-08-21T03:17:36.211Z,18.71
2018-08-21T03:18:36.237Z,18.71
2018-08-21T03:19:36.253Z,18.68
2018-08-21T03:20:36.278Z,18.68
2018-08-21T03:21:36.321Z,18.64
2018-08-21T03:22:36.330Z,18.64
2018-08-21T03:23:36.343Z,18.67
2018-08-21T03:24:36.368Z,18.64
2018-08-21T03:25:36.394Z,18.67
2018-08-21T03:26:36.409Z,18.64
2018-08-21T03:27:36.434Z,18.64
2018-08-21T03:28:36.463Z,18.68
2018-08-21T03:29:36.473Z,18.63
2018-08-21T03:30:36.499Z,18.67
2018-08-21T03:31:36.530Z,18.67
2018-08-21T03:32:36.539Z,18.63
2018-08-21T03:33:36.565Z,18.64
2018-08-21T03:34:36.591Z,18.67
2018-08-21T03:35:36.618Z,18.64
2018-08-21T03:36:36.630Z,18.63
2018-08-21T03:37:36.656Z,18.67
2018-08-21T03:38:36.682Z,18.68
2018-08-21T03:39:36.703Z,18.67
2018-08-21T03:40:36.721Z,18.66
2018-08-21T03:41:36.748Z,18.57
2018-08-21T03:42:36.761Z,18.63
2018-08-21T03:43:36.787Z,18.64
2018-08-21T03:44:36.812Z,18.61
2018-08-21T03:45:36.826Z,18.57
2018-08-21T03:46:36.853Z,18.60
2018-08-21T03:47:36.877Z,18.61
2018-08-21T03:48:36.904Z,18.55
2018-08-21T03:49:36.932Z,18.60
2018-08-21T03:50:36.943Z,18.58
2018-08-21T03:51:36.969Z,18.49
2018-08-21T03:52:36.983Z,18.51
2018-08-21T03:53:37.009Z,18.48
2018-08-21T03:54:37.035Z,18.52
2018-08-21T03:55:37.049Z,18.49
2018-08-21T03:56:37.075Z,18.49
2018-08-21T03:57:37.099Z,18.52
2018-08-21T03:58:37.126Z,18.39
2018-08-21T03:59:37.140Z,18.48
2018-08-21T04:00:37.166Z,18.36
2018-08-21T04:01:37.191Z,18.41
2018-08-21T04:02:37.204Z,18.42
2018-08-21T04:03:37.232Z,18.41
2018-08-21T04:04:37.257Z,18.36
2018-08-21T04:05:37.271Z,18.41
2018-08-21T04:06:37.296Z,18.41
2018-08-21T04:07:37.324Z,18.31
2018-08-21T04:08:37.336Z,18.39
2018-08-21T04:09:37.363Z,18.39
2018-08-21T04:10:37.387Z,18.34
2018-08-21T04:11:37.412Z,18.33
2018-08-21T04:12:37.426Z,18.31
2018-08-21T04:13:37.452Z,18.26
2018-08-21T04:14:37.478Z,18.27
2018-08-21T04:15:37.491Z,18.30
2018-08-21T04:16:37.517Z,18.26
2018-08-21T04:17:37.543Z,18.30
2018-08-21T04:18:37.557Z,18.26
2018-08-21T04:19:37.584Z,18.31
2018-08-21T04:20:37.612Z,18.26
2018-08-21T04:21:37.621Z,18.28
2018-08-21T04:22:37.648Z,18.28
2018-08-21T04:23:37.686Z,18.26
2018-08-21T04:24:37.744Z,18.21
2018-08-21T04:25:37.714Z,18.27
2018-08-21T04:26:37.739Z,18.19
2018-08-21T04:27:37.753Z,18.39
2018-08-21T04:28:37.778Z,18.37
2018-08-21T04:29:37.806Z,18.33
2018-08-21T04:30:37.829Z,18.24
2018-08-21T04:31:37.847Z,18.28
2018-08-21T04:32:37.934Z,18.21
2018-08-21T04:33:37.896Z,18.31
2018-08-21T04:34:37.909Z,18.30
2018-08-21T04:35:37.934Z,18.28
2018-08-21T04:36:37.961Z,18.30
2018-08-21T04:37:37.975Z,18.26
2018-08-21T04:38:38.000Z,18.21
2018-08-21T04:39:38.027Z,18.21
2018-08-21T04:40:38.039Z,18.33
2018-08-21T04:41:38.065Z,18.30
2018-08-21T04:42:38.104Z,18.24
2018-08-21T04:43:38.106Z,18.31
2018-08-21T04:44:38.131Z,18.28
2018-08-21T04:45:38.157Z,18.26
2018-08-21T04:46:38.183Z,18.26
2018-08-21T04:47:38.195Z,18.26
2018-08-21T04:48:38.221Z,18.31
2018-08-21T04:49:38.261Z,18.23
2018-08-21T04:50:38.262Z,18.23
2018-08-21T04:51:38.289Z,18.24
2018-08-21T04:52:38.314Z,18.26
2018-08-21T04:53:38.326Z,18.16
2018-08-21T04:54:38.352Z,18.26
2018-08-21T04:55:38.378Z,18.15
2018-08-21T04:56:38.393Z,18.12
2018-08-21T04:57:38.419Z,18.18
2018-08-21T04:58:38.540Z,18.13
2018-08-21T04:59:38.458Z,18.09
2018-08-21T05:00:38.484Z,18.13
2018-08-21T05:01:38.509Z,18.09
2018-08-21T05:02:38.535Z,18.16
2018-08-21T05:03:38.548Z,18.18
2018-08-21T05:04:38.579Z,18.13
2018-08-21T05:05:38.628Z,18.16
2018-08-21T05:06:38.614Z,18.16
2018-08-21T05:07:38.640Z,18.12
2018-08-21T05:08:38.665Z,18.15
2018-08-21T05:09:38.680Z,18.15
2018-08-21T05:10:38.707Z,18.13
2018-08-21T05:11:38.733Z,18.13
2018-08-21T05:12:38.824Z,18.21
2018-08-21T05:13:38.783Z,18.16
2018-08-21T05:14:38.799Z,18.12
2018-08-21T05:15:38.822Z,18.18
2018-08-21T05:16:38.839Z,18.18
2018-08-21T05:17:38.861Z,18.23
2018-08-21T05:18:38.888Z,18.15
2018-08-21T05:19:38.903Z,18.26
2018-08-21T05:20:38.926Z,18.27
2018-08-21T05:21:38.952Z,18.34
2018-08-21T05:22:38.966Z,18.34
2018-08-21T05:23:38.993Z,18.37
2018-08-21T05:24:39.019Z,18.43
2018-08-21T05:25:39.032Z,18.30
2018-08-21T05:26:39.070Z,18.21
2018-08-21T05:27:39.083Z,18.39
2018-08-21T05:28:39.161Z,18.26
2018-08-21T05:29:39.124Z,18.42
2018-08-21T05:30:39.148Z,18.27
2018-08-21T05:31:39.175Z,18.36
2018-08-21T05:32:39.188Z,18.26
2018-08-21T05:33:39.226Z,18.30
2018-08-21T05:34:39.240Z,18.27
2018-08-21T05:35:39.255Z,18.27
2018-08-21T05:36:39.279Z,18.26
2018-08-21T05:37:39.306Z,18.33
2018-08-21T05:38:39.332Z,18.19
2018-08-21T05:39:39.344Z,18.30
2018-08-21T05:40:39.372Z,18.26
2018-08-21T05:41:39.400Z,18.21
2018-08-21T05:42:39.410Z,18.23
2018-08-21T05:43:39.438Z,18.18
2018-08-21T05:44:39.462Z,18.12
2018-08-21T05:45:39.475Z,18.13
2018-08-21T05:46:39.501Z,18.13
2018-08-21T05:47:39.526Z,18.16
2018-08-21T05:48:39.566Z,18.12
2018-08-21T05:49:39.567Z,18.19
2018-08-21T05:50:39.593Z,18.19
2018-08-21T05:51:39.619Z,18.15
2018-08-21T05:52:39.631Z,18.16
2018-08-21T05:53:39.670Z,18.13
2018-08-21T05:54:39.698Z,18.08
2018-08-21T05:55:39.775Z,18.08
2018-08-21T05:56:39.723Z,18.16
2018-08-21T05:57:39.749Z,18.12
2018-08-21T05:58:39.763Z,18.06
2018-08-21T05:59:39.788Z,18.15
2018-08-21T06:00:39.813Z,18.09
2018-08-21T06:01:39.840Z,18.06
2018-08-21T06:02:39.853Z,18.12
2018-08-21T06:03:39.882Z,18.05
2018-08-21T06:04:39.908Z,18.03
2018-08-21T06:05:39.918Z,18.06
2018-08-21T06:06:39.944Z,18.16
2018-08-21T06:07:39.970Z,18.18
2018-08-21T06:08:39.984Z,18.16
2018-08-21T06:09:40.010Z,18.16
2018-08-21T06:10:40.036Z,18.15
2018-08-21T06:11:40.062Z,18.18
2018-08-21T06:12:40.076Z,18.26
2018-08-21T06:13:40.101Z,18.24
2018-08-21T06:14:40.127Z,18.18
2018-08-21T06:15:40.141Z,18.21
2018-08-21T06:16:40.171Z,18.28
2018-08-21T06:17:40.193Z,18.27
2018-08-21T06:18:40.206Z,18.30
2018-08-21T06:19:40.235Z,18.30
2018-08-21T06:20:40.259Z,18.28
2018-08-21T06:21:40.273Z,18.24
2018-08-21T06:22:40.299Z,18.31
2018-08-21T06:23:40.323Z,18.28
2018-08-21T06:24:40.353Z,18.39
2018-08-21T06:25:40.363Z,18.37
2018-08-21T06:26:40.388Z,18.42
2018-08-21T06:27:40.414Z,18.51
2018-08-21T06:28:40.429Z,18.61
2018-08-21T06:29:40.454Z,18.67
2018-08-21T06:30:40.480Z,18.86
2018-08-21T06:31:40.508Z,18.78
2018-08-21T06:32:40.520Z,18.96
2018-08-21T06:33:40.551Z,19.09
2018-08-21T06:34:40.572Z,19.27
2018-08-21T06:35:40.596Z,19.42
2018-08-21T06:36:40.612Z,19.48
2018-08-21T06:37:40.637Z,19.63
2018-08-21T06:38:40.682Z,19.74
2018-08-21T06:39:40.731Z,19.81
2018-08-21T06:40:40.700Z,19.93
2018-08-21T06:41:40.727Z,20.07
2018-08-21T06:42:40.753Z,20.12
2018-08-21T06:43:40.778Z,20.32
2018-08-21T06:44:40.798Z,20.48
2018-08-21T06:45:40.820Z,20.39
2018-08-21T06:46:40.920Z,20.37
2018-08-21T06:47:40.870Z,20.59
2018-08-21T06:48:40.896Z,20.75
2018-08-21T06:49:40.924Z,20.83
2018-08-21T06:50:40.936Z,21.05
2018-08-21T06:51:40.962Z,21.22
2018-08-21T06:52:40.999Z,21.22
2018-08-21T06:53:41.018Z,21.35
2018-08-21T06:54:41.040Z,21.48
2018-08-21T06:55:41.064Z,21.58
2018-08-21T06:56:41.090Z,21.60
2018-08-21T06:57:41.116Z,21.66
2018-08-21T06:58:41.155Z,21.78
2018-08-21T06:59:41.159Z,21.80
2018-08-21T07:00:41.184Z,22.06
2018-08-21T07:01:41.208Z,22.04
2018-08-21T07:02:41.235Z,22.19
2018-08-21T07:03:41.260Z,22.28
2018-08-21T07:04:41.287Z,22.37
2018-08-21T07:05:41.312Z,22.49
2018-08-21T07:06:41.338Z,22.65
2018-08-21T07:07:41.365Z,22.78
2018-08-21T07:08:41.389Z,22.91
2018-08-21T07:09:41.416Z,22.93
2018-08-21T07:10:41.442Z,23.04
2018-08-21T07:11:41.467Z,23.21
2018-08-21T07:12:41.493Z,23.28
2018-08-21T07:13:41.519Z,23.37
2018-08-21T07:14:41.547Z,23.55
2018-08-21T07:15:41.571Z,23.63
2018-08-21T07:16:41.598Z,23.67
2018-08-21T07:17:41.623Z,23.73
2018-08-21T07:18:41.650Z,23.82
2018-08-21T07:19:41.676Z,23.91
2018-08-21T07:20:41.708Z,23.94
2018-08-21T07:21:41.727Z,24.00
2018-08-21T07:22:41.753Z,24.06
2018-08-21T07:23:41.779Z,24.07
2018-08-21T07:24:41.805Z,24.10
2018-08-21T07:25:41.831Z,24.21
2018-08-21T07:26:41.857Z,24.19
2018-08-21T07:27:41.883Z,24.22
2018-08-21T07:28:41.909Z,24.37
2018-08-21T07:29:41.947Z,24.32
2018-08-21T07:30:41.973Z,24.22
2018-08-21T07:31:42.000Z,24.26
2018-08-21T07:32:42.026Z,24.41
2018-08-21T07:33:42.050Z,24.36
2018-08-21T07:34:42.076Z,24.44
2018-08-21T07:35:42.175Z,24.56
2018-08-21T07:36:42.129Z,24.51
2018-08-21T07:37:42.156Z,24.74
2018-08-21T07:38:42.194Z,24.77
2018-08-21T07:39:42.220Z,24.84
2018-08-21T07:40:42.246Z,24.82
2018-08-21T07:41:42.274Z,25.00
2018-08-21T07:42:42.298Z,25.00
2018-08-21T07:43:42.324Z,25.18
2018-08-21T07:44:42.350Z,25.18
2018-08-21T07:45:42.387Z,25.31
2018-08-21T07:46:42.413Z,25.33
2018-08-21T07:47:42.477Z,25.18
2018-08-21T07:48:42.467Z,25.22
2018-08-21T07:49:42.492Z,25.18
2018-08-21T07:50:42.530Z,25.22
2018-08-21T07:51:42.556Z,25.22
2018-08-21T07:52:42.582Z,25.29
2018-08-21T07:53:42.608Z,25.26
2018-08-21T07:54:42.646Z,25.14
2018-08-21T07:55:42.673Z,25.18
2018-08-21T07:56:42.711Z,25.15
2018-08-21T07:57:42.724Z,25.25
2018-08-21T07:58:42.766Z,25.24
2018-08-21T07:59:42.789Z,25.18
2018-08-21T08:00:42.816Z,25.18
2018-08-21T08:01:42.841Z,25.22
2018-08-21T08:02:42.878Z,25.22
2018-08-21T08:03:42.904Z,25.31
2018-08-21T08:04:42.943Z,25.40
2018-08-21T08:05:42.957Z,25.40
2018-08-21T08:06:42.995Z,25.30
2018-08-21T08:07:43.022Z,25.33
2018-08-21T08:08:43.048Z,25.31
2018-08-21T08:09:43.076Z,25.30
2018-08-21T08:10:43.111Z,25.16
2018-08-21T08:11:43.138Z,24.89
2018-08-21T08:12:43.163Z,24.78
2018-08-21T08:13:43.203Z,24.41
2018-08-21T08:14:43.228Z,24.09
2018-08-21T08:15:43.254Z,24.07
2018-08-21T08:16:43.280Z,24.01
2018-08-21T08:17:43.306Z,23.91
2018-08-21T08:18:43.333Z,23.79
2018-08-21T08:19:43.370Z,23.59
2018-08-21T08:20:43.396Z,23.40
2018-08-21T08:21:43.424Z,23.44
2018-08-21T08:22:43.449Z,23.23
2018-08-21T08:23:43.475Z,23.20
2018-08-21T08:24:43.499Z,23.16
2018-08-21T08:25:43.527Z,22.99
2018-08-21T08:26:43.551Z,22.98
2018-08-21T08:27:43.578Z,22.93
2018-08-21T08:28:43.603Z,22.91
2018-08-21T08:29:43.630Z,22.91
2018-08-21T08:30:43.655Z,22.89
2018-08-21T08:31:43.680Z,22.88
2018-08-21T08:32:43.721Z,22.74
2018-08-21T08:33:43.733Z,22.81
2018-08-21T08:34:43.759Z,22.65
2018-08-21T08:35:43.788Z,22.78
2018-08-21T08:36:43.812Z,22.78
2018-08-21T08:37:43.837Z,22.78
2018-08-21T08:38:43.863Z,22.78
2018-08-21T08:39:43.888Z,22.76
2018-08-21T08:40:43.917Z,22.70
2018-08-21T08:41:44.012Z,22.41
2018-08-21T08:42:43.966Z,22.41
2018-08-21T08:43:43.992Z,22.44
2018-08-21T08:44:44.020Z,22.44
2018-08-21T08:45:44.043Z,22.47
2018-08-21T08:46:44.071Z,22.38
2018-08-21T08:47:44.182Z,22.37
2018-08-21T08:48:44.122Z,22.28
2018-08-21T08:49:44.160Z,22.15
2018-08-21T08:50:44.175Z,22.22
2018-08-21T08:51:44.201Z,22.22
2018-08-21T08:52:44.224Z,22.19
2018-08-21T08:53:44.264Z,22.21
2018-08-21T08:54:44.277Z,22.16
2018-08-21T08:55:44.303Z,22.12
2018-08-21T08:56:44.329Z,22.07
2018-08-21T08:57:44.356Z,22.18
2018-08-21T08:58:44.369Z,22.23
2018-08-21T08:59:44.395Z,22.15
2018-08-21T09:00:44.422Z,22.16
2018-08-21T09:01:44.459Z,22.16
2018-08-21T09:02:44.473Z,22.30
2018-08-21T09:03:44.500Z,22.23
2018-08-21T09:04:44.539Z,22.14
2018-08-21T09:05:44.550Z,22.30
2018-08-21T09:06:44.577Z,22.30
2018-08-21T09:07:44.603Z,22.22
2018-08-21T09:08:44.628Z,22.22
2018-08-21T09:09:44.655Z,22.30
2018-08-21T09:10:44.681Z,22.33
2018-08-21T09:11:44.695Z,22.31
2018-08-21T09:12:44.719Z,22.33
2018-08-21T09:13:44.745Z,22.40
2018-08-21T09:14:44.790Z,22.49
2018-08-21T09:15:44.797Z,22.49
2018-08-21T09:16:44.823Z,22.41
2018-08-21T09:17:44.849Z,22.63
2018-08-21T09:18:44.875Z,22.62
2018-08-21T09:19:44.904Z,22.59
2018-08-21T09:20:44.930Z,22.55
2018-08-21T09:21:44.953Z,22.44
2018-08-21T09:22:44.980Z,22.41
2018-08-21T09:23:45.006Z,22.41
2018-08-21T09:24:45.031Z,22.49
2018-08-21T09:25:45.046Z,22.46
2018-08-21T09:26:45.071Z,22.56
2018-08-21T09:27:45.097Z,22.47
2018-08-21T09:28:45.122Z,22.51
2018-08-21T09:29:45.149Z,22.56
2018-08-21T09:30:45.176Z,22.55
2018-08-21T09:31:45.200Z,22.59
2018-08-21T09:32:45.225Z,22.59
2018-08-21T09:33:45.252Z,22.61
2018-08-21T09:34:45.278Z,22.65
2018-08-21T09:35:45.306Z,22.65
2018-08-21T09:36:45.329Z,22.76
2018-08-21T09:37:45.357Z,22.77
2018-08-21T09:38:45.382Z,22.77
2018-08-21T09:39:45.408Z,22.77
2018-08-21T09:40:45.422Z,22.78
2018-08-21T09:41:45.447Z,22.74
2018-08-21T09:42:45.473Z,22.76
2018-08-21T09:43:45.499Z,22.88
2018-08-21T09:44:45.544Z,22.86
2018-08-21T09:45:45.562Z,22.91
2018-08-21T09:46:45.577Z,22.98
2018-08-21T09:47:45.602Z,22.95
2018-08-21T09:48:45.627Z,22.99
2018-08-21T09:49:45.656Z,23.13
2018-08-21T09:50:45.679Z,23.14
2018-08-21T09:51:45.783Z,23.20
2018-08-21T09:52:45.731Z,23.28
2018-08-21T09:53:45.758Z,23.40
2018-08-21T09:54:45.783Z,23.39
2018-08-21T09:55:45.816Z,23.51
2018-08-21T09:56:45.835Z,23.55
2018-08-21T09:57:45.862Z,23.64
2018-08-21T09:58:45.887Z,23.71
2018-08-21T09:59:45.913Z,23.82
2018-08-21T10:00:45.941Z,23.88
2018-08-21T10:01:45.966Z,23.81
2018-08-21T10:02:45.992Z,23.89
2018-08-21T10:03:46.018Z,23.91
2018-08-21T10:04:46.045Z,24.03
2018-08-21T10:05:46.070Z,24.06
2018-08-21T10:06:46.135Z,24.07
2018-08-21T10:07:46.120Z,24.11
2018-08-21T10:08:46.149Z,24.11
2018-08-21T10:09:46.172Z,24.07
2018-08-21T10:10:46.198Z,24.21
2018-08-21T10:11:46.227Z,24.13
2018-08-21T10:12:46.250Z,24.06
2018-08-21T10:13:46.278Z,24.07
2018-08-21T10:14:46.302Z,23.96
2018-08-21T10:15:46.330Z,24.04
2018-08-21T10:16:46.354Z,23.95
2018-08-21T10:17:46.381Z,24.06
2018-08-21T10:18:46.406Z,24.11
2018-08-21T10:19:46.432Z,24.09
2018-08-21T10:20:46.460Z,24.21
2018-08-21T10:21:46.497Z,24.29
2018-08-21T10:22:46.524Z,24.47
2018-08-21T10:23:46.550Z,24.62
2018-08-21T10:24:46.575Z,24.68
2018-08-21T10:25:46.605Z,24.78
2018-08-21T10:26:46.639Z,25.06
2018-08-21T10:27:46.664Z,25.19
2018-08-21T10:28:46.691Z,25.04
2018-08-21T10:29:46.721Z,25.19
2018-08-21T10:30:46.756Z,25.24
2018-08-21T10:31:46.785Z,25.29
2018-08-21T10:32:46.808Z,25.40
2018-08-21T10:33:46.845Z,25.41
2018-08-21T10:34:46.917Z,25.40
2018-08-21T10:35:46.901Z,25.33
2018-08-21T10:36:46.925Z,25.31
2018-08-21T10:37:46.961Z,25.30
2018-08-21T10:38:46.991Z,25.26
2018-08-21T10:39:47.014Z,25.34
2018-08-21T10:40:47.052Z,25.54
2018-08-21T10:41:47.077Z,25.71
2018-08-21T10:42:47.104Z,25.80
2018-08-21T10:43:47.143Z,25.85
2018-08-21T10:44:47.168Z,25.96
2018-08-21T10:45:47.194Z,26.07
2018-08-21T10:46:47.232Z,26.27
2018-08-21T10:47:47.258Z,26.36
2018-08-21T10:48:47.298Z,26.59
2018-08-21T10:49:47.325Z,26.98
2018-08-21T10:50:47.373Z,27.19
2018-08-21T10:51:47.444Z,27.37
2018-08-21T10:52:47.428Z,27.38
2018-08-21T10:53:47.453Z,27.73
2018-08-21T10:54:47.489Z,27.95
2018-08-21T10:55:47.533Z,28.04
2018-08-21T10:56:47.555Z,28.30
2018-08-21T10:57:47.605Z,28.52
2018-08-21T10:58:47.632Z,28.71
2018-08-21T10:59:47.658Z,28.97
2018-08-21T11:00:47.696Z,29.18
2018-08-21T11:01:47.734Z,29.34
2018-08-21T11:02:47.772Z,29.58
2018-08-21T11:03:47.799Z,29.79
2018-08-21T11:04:47.838Z,29.87
2018-08-21T11:05:47.876Z,29.95
2018-08-21T11:06:47.914Z,30.01
2018-08-21T11:07:47.955Z,30.18
2018-08-21T11:08:47.978Z,30.40
2018-08-21T11:09:48.017Z,30.52
2018-08-21T11:10:48.056Z,30.67
2018-08-21T11:11:48.094Z,30.73
2018-08-21T11:12:48.133Z,30.55
2018-08-21T11:13:48.171Z,30.40
2018-08-21T11:14:48.198Z,30.18
2018-08-21T11:15:48.237Z,30.18
2018-08-21T11:16:48.275Z,30.29
2018-08-21T11:17:48.311Z,30.32
2018-08-21T11:18:48.351Z,30.36
2018-08-21T11:19:48.382Z,30.40
2018-08-21T11:20:48.415Z,30.46
2018-08-21T11:21:48.457Z,30.71
2018-08-21T11:22:48.492Z,30.81
2018-08-21T11:23:48.530Z,30.98
2018-08-21T11:24:48.556Z,31.02
2018-08-21T11:25:48.594Z,31.07
2018-08-21T11:26:48.633Z,31.11
2018-08-21T11:27:48.686Z,31.15
2018-08-21T11:28:48.709Z,31.35
2018-08-21T11:29:48.802Z,31.30
2018-08-21T11:30:48.786Z,31.33
2018-08-21T11:31:48.813Z,31.29
2018-08-21T11:32:48.853Z,31.17
2018-08-21T11:33:48.889Z,31.05
2018-08-21T11:34:48.940Z,31.00
2018-08-21T11:35:48.969Z,31.13
2018-08-21T11:36:48.995Z,31.14
2018-08-21T11:37:49.074Z,31.20
2018-08-21T11:38:49.070Z,31.30
2018-08-21T11:39:49.107Z,31.42
2018-08-21T11:40:49.147Z,31.52
2018-08-21T11:41:49.185Z,31.63
2018-08-21T11:42:49.210Z,31.73
2018-08-21T11:43:49.249Z,31.93
2018-08-21T11:44:49.288Z,32.12
2018-08-21T11:45:49.326Z,32.45
2018-08-21T11:46:49.367Z,32.41
2018-08-21T11:47:49.403Z,32.48
2018-08-21T11:48:49.441Z,32.48
2018-08-21T11:49:49.471Z,32.68
2018-08-21T11:50:49.506Z,32.91
2018-08-21T11:51:49.543Z,33.05
2018-08-21T11:52:49.583Z,33.10
2018-08-21T11:53:49.621Z,33.17
2018-08-21T11:54:49.660Z,33.33
2018-08-21T11:55:49.697Z,33.17
2018-08-21T11:56:49.738Z,33.01
2018-08-21T11:57:49.775Z,32.94
2018-08-21T11:58:49.813Z,32.85
2018-08-21T11:59:49.852Z,32.60
2018-08-21T12:00:49.891Z,32.38
2018-08-21T12:01:49.929Z,31.92
2018-08-21T12:02:49.954Z,31.95
2018-08-21T12:03:49.994Z,31.81
2018-08-21T12:04:50.031Z,31.79
2018-08-21T12:05:50.075Z,31.92
2018-08-21T12:06:50.109Z,31.90
2018-08-21T12:07:50.148Z,32.01
2018-08-21T12:08:50.196Z,31.90
2018-08-21T12:09:50.210Z,31.95
2018-08-21T12:10:50.250Z,31.98
2018-08-21T12:11:50.287Z,32.07
2018-08-21T12:12:50.327Z,32.17
2018-08-21T12:13:50.353Z,32.29
2018-08-21T12:14:50.481Z,32.37
2018-08-21T12:15:50.430Z,32.42
2018-08-21T12:16:50.469Z,32.49
2018-08-21T12:17:50.507Z,32.57
2018-08-21T12:18:50.547Z,32.72
2018-08-21T12:19:50.583Z,33.04
2018-08-21T12:20:50.610Z,33.16
2018-08-21T12:21:50.651Z,33.28
2018-08-21T12:22:50.686Z,33.42
2018-08-21T12:23:50.742Z,33.47
2018-08-21T12:24:50.763Z,33.55
2018-08-21T12:25:50.800Z,33.60
2018-08-21T12:26:50.840Z,33.66
2018-08-21T12:27:50.878Z,33.66
2018-08-21T12:28:50.916Z,33.89
2018-08-21T12:29:50.963Z,33.88
2018-08-21T12:30:50.993Z,33.67
2018-08-21T12:31:51.033Z,33.57
2018-08-21T12:32:51.074Z,33.39
2018-08-21T12:33:51.108Z,33.33
2018-08-21T12:34:51.148Z,33.15
2018-08-21T12:35:51.184Z,33.00
2018-08-21T12:36:51.224Z,32.90
2018-08-21T12:37:51.262Z,32.94
2018-08-21T12:38:51.292Z,33.01
2018-08-21T12:39:51.327Z,32.83
2018-08-21T12:40:51.364Z,32.64
2018-08-21T12:41:51.403Z,32.42
2018-08-21T12:42:51.442Z,32.49
2018-08-21T12:43:51.480Z,32.71
2018-08-21T12:44:51.518Z,32.68
2018-08-21T12:45:51.546Z,32.90
2018-08-21T12:46:51.582Z,32.71
2018-08-21T12:47:51.620Z,32.63
2018-08-21T12:48:51.663Z,32.51
2018-08-21T12:49:51.710Z,32.31
2018-08-21T12:50:51.736Z,32.19
2018-08-21T12:51:51.777Z,32.26
2018-08-21T12:52:51.800Z,32.27